Time,TemperatureF,DewpointF,PressureIn,WindDirection,WindDirectionDegrees,WindSpeedMPH,WindSpeedGustMPH,Humidity,HourlyPrecipIn,Conditions,Clouds,dailyrainin,SolarRadiationWatts/m^2,SoftwareType,DateUTC
2013-01-29 00:06:00,65.1,62.0,30.24,ESE,106,0.0,1.0,90,0.00,,,0.00,0,weatherlink.com 1.10,2013-01-29 05:06:00,
2013-01-29 00:21:00,65.2,63.0,30.24,ESE,105,0.0,2.0,91,0.00,,,0.00,0,weatherlink.com 1.10,2013-01-29 05:21:00,
2013-01-29 00:36:00,65.1,63.0,30.24,ESE,106,0.0,1.0,91,0.00,,,0.00,0,weatherlink.com 1.10,2013-01-29 05:36:00,
2013-01-29 00:51:00,65.0,62.0,30.23,ESE,102,0.0,2.0,91,0.00,,,0.00,0,weatherlink.com 1.10,2013-01-29 05:51:00,
2013-01-29 01:06:00,65.0,62.0,30.23,ESE,102,0.0,1.0,91,0.00,,,0.00,0,weatherlink.com 1.10,2013-01-29 06:06:00,
2013-01-29 01:21:00,64.9,63.0,30.22,East,88,0.0,3.0,92,0.00,,,0.00,0,weatherlink.com 1.10,2013-01-29 06:21:00,
2013-01-29 01:36:00,64.8,63.0,30.22,East,88,0.0,1.0,92,0.00,,,0.00,0,weatherlink.com 1.10,2013-01-29 06:36:00,
2013-01-29 01:51:00,64.7,62.0,30.22,ENE,57,0.0,2.0,92,0.00,,,0.00,0,weatherlink.com 1.10,2013-01-29 06:51:00,
2013-01-29 02:06:00,64.6,62.0,30.21,ENE,59,0.0,0.0,92,0.00,,,0.00,0,weatherlink.com 1.10,2013-01-29 07:06:00,
2013-01-29 02:21:00,64.6,63.0,30.21,ENE,57,0.0,1.0,93,0.00,,,0.00,0,weatherlink.com 1.10,2013-01-29 07:21:00,
2013-01-29 02:36:00,64.6,63.0,30.21,ENE,59,0.0,1.0,93,0.00,,,0.00,0,weatherlink.com 1.10,2013-01-29 07:36:00,
2013-01-29 02:51:00,64.7,63.0,30.21,ENE,61,0.0,1.0,93,0.00,,,0.00,0,weatherlink.com 1.10,2013-01-29 07:51:00,
2013-01-29 03:06:00,64.7,63.0,30.21,ENE,74,0.0,3.0,93,0.00,,,0.00,0,weatherlink.com 1.10,2013-01-29 08:06:00,
2013-01-29 03:21:00,64.5,63.0,30.20,ENE,75,0.0,2.0,93,0.00,,,0.00,0,weatherlink.com 1.10,2013-01-29 08:21:00,
2013-01-29 03:36:00,64.4,62.0,30.20,ENE,74,0.0,2.0,93,0.00,,,0.00,0,weatherlink.com 1.10,2013-01-29 08:36:00,
2013-01-29 03:51:00,64.2,62.0,30.20,ENE,74,0.0,2.0,93,0.00,,,0.00,0,weatherlink.com 1.10,2013-01-29 08:51:00,
2013-01-29 04:06:00,64.1,62.0,30.20,ENE,74,0.0,1.0,93,0.00,,,0.00,0,weatherlink.com 1.10,2013-01-29 09:06:00,
2013-01-29 04:21:00,63.9,62.0,30.20,ENE,74,0.0,1.0,94,0.00,,,0.00,0,weatherlink.com 1.10,2013-01-29 09:21:00,
2013-01-29 04:36:00,63.7,62.0,30.19,ENE,75,0.0,1.0,93,0.00,,,0.00,0,weatherlink.com 1.10,2013-01-29 09:36:00,
2013-01-29 04:51:00,63.6,62.0,30.19,ENE,74,0.0,1.0,93,0.00,,,0.00,0,weatherlink.com 1.10,2013-01-29 09:51:00,
2013-01-29 05:06:00,63.5,62.0,30.19,ENE,74,0.0,1.0,94,0.00,,,0.00,0,weatherlink.com 1.10,2013-01-29 10:06:00,
2013-01-29 05:21:00,63.4,62.0,30.20,ENE,74,0.0,1.0,94,0.00,,,0.00,0,weatherlink.com 1.10,2013-01-29 10:21:00,
2013-01-29 05:36:00,63.2,62.0,30.20,ENE,75,0.0,1.0,94,0.00,,,0.00,0,weatherlink.com 1.10,2013-01-29 10:36:00,
2013-01-29 05:51:00,63.4,62.0,30.20,ENE,74,0.0,1.0,94,0.00,,,0.00,0,weatherlink.com 1.10,2013-01-29 10:51:00,
2013-01-29 06:06:00,63.4,62.0,30.21,ENE,74,0.0,1.0,94,0.00,,,0.00,0,weatherlink.com 1.10,2013-01-29 11:06:00,
2013-01-29 06:21:00,63.4,62.0,30.21,ENE,74,0.0,2.0,94,0.00,,,0.00,0,weatherlink.com 1.10,2013-01-29 11:21:00,
2013-01-29 06:36:00,63.4,62.0,30.21,ENE,75,0.0,3.0,94,0.01,,,0.01,0,weatherlink.com 1.10,2013-01-29 11:36:00,
2013-01-29 06:51:00,63.4,62.0,30.21,ENE,75,0.0,2.0,94,0.01,,,0.01,0,weatherlink.com 1.10,2013-01-29 11:51:00,
2013-01-29 07:06:00,63.2,62.0,30.21,ENE,75,0.0,1.0,94,0.01,,,0.01,0,weatherlink.com 1.10,2013-01-29 12:06:00,
2013-01-29 07:21:00,63.2,62.0,30.22,ENE,76,0.0,1.0,94,0.01,,,0.01,7,weatherlink.com 1.10,2013-01-29 12:21:00,
2013-01-29 07:36:00,63.2,62.0,30.22,ENE,75,0.0,1.0,94,0.00,,,0.01,19,weatherlink.com 1.10,2013-01-29 12:36:00,
2013-01-29 07:51:00,63.3,62.0,30.22,ENE,75,0.0,1.0,94,0.00,,,0.01,46,weatherlink.com 1.10,2013-01-29 12:51:00,
2013-01-29 08:06:00,63.6,62.0,30.22,ENE,76,0.0,1.0,95,0.00,,,0.01,67,weatherlink.com 1.10,2013-01-29 13:06:00,
2013-01-29 08:21:00,64.1,63.0,30.23,ENE,76,0.0,0.0,95,0.00,,,0.01,95,weatherlink.com 1.10,2013-01-29 13:21:00,
2013-01-29 08:36:00,65.0,64.0,30.22,ENE,74,0.0,1.0,95,0.00,,,0.01,195,weatherlink.com 1.10,2013-01-29 13:36:00,
2013-01-29 08:51:00,66.4,65.0,30.22,ENE,75,0.0,1.0,95,0.00,,,0.01,241,weatherlink.com 1.10,2013-01-29 13:51:00,
2013-01-29 09:07:00,67.4,66.0,30.22,SSE,163,4.0,6.0,95,0.00,,,0.01,292,weatherlink.com 1.10,2013-01-29 14:07:00,
2013-01-29 09:22:00,69.1,67.0,30.22,SE,130,3.0,5.0,93,0.00,,,0.01,338,weatherlink.com 1.10,2013-01-29 14:22:00,
2013-01-29 09:37:00,70.7,68.0,30.22,SSE,153,5.0,8.0,90,0.00,,,0.01,392,weatherlink.com 1.10,2013-01-29 14:37:00,
2013-01-29 09:52:00,72.8,68.0,30.22,SSE,161,6.0,9.0,85,0.00,,,0.01,438,weatherlink.com 1.10,2013-01-29 14:52:00,
2013-01-29 10:07:00,73.9,68.0,30.22,South,191,6.0,9.0,82,0.00,,,0.01,483,weatherlink.com 1.10,2013-01-29 15:07:00,
2013-01-29 10:22:00,74.5,68.0,30.22,SE,126,7.0,12.0,79,0.00,,,0.01,531,weatherlink.com 1.10,2013-01-29 15:22:00,
2013-01-29 10:37:00,75.3,68.0,30.22,South,175,6.0,13.0,77,0.00,,,0.01,564,weatherlink.com 1.10,2013-01-29 15:37:00,
2013-01-29 10:52:00,76.8,67.0,30.21,SSE,155,5.0,12.0,72,0.00,,,0.01,652,weatherlink.com 1.10,2013-01-29 15:52:00,
2013-01-29 11:07:00,77.0,67.0,30.21,SSW,199,2.0,11.0,71,0.00,,,0.01,323,weatherlink.com 1.10,2013-01-29 16:07:00,
2013-01-29 11:22:00,78.1,67.0,30.20,SSE,167,4.0,10.0,68,0.00,,,0.01,721,weatherlink.com 1.10,2013-01-29 16:22:00,
2013-01-29 11:37:00,78.4,67.0,30.19,SSE,163,1.0,13.0,68,0.00,,,0.01,714,weatherlink.com 1.10,2013-01-29 16:37:00,
2013-01-29 11:52:00,79.1,66.0,30.18,SSE,155,6.0,11.0,64,0.00,,,0.01,765,weatherlink.com 1.10,2013-01-29 16:52:00,
2013-01-29 12:07:00,79.9,66.0,30.18,SE,146,4.0,7.0,63,0.00,,,0.01,766,weatherlink.com 1.10,2013-01-29 17:07:00,
2013-01-29 12:22:00,79.1,65.0,30.16,ESE,122,9.0,10.0,63,0.00,,,0.01,155,weatherlink.com 1.10,2013-01-29 17:22:00,
2013-01-29 12:37:00,78.8,65.0,30.16,South,175,5.0,10.0,63,0.00,,,0.01,160,weatherlink.com 1.10,2013-01-29 17:37:00,
2013-01-29 12:52:00,79.7,64.0,30.14,SSE,150,6.0,11.0,59,0.00,,,0.01,772,weatherlink.com 1.10,2013-01-29 17:52:00,
2013-01-29 13:07:00,79.9,64.0,30.13,South,170,6.0,12.0,58,0.00,,,0.01,761,weatherlink.com 1.10,2013-01-29 18:07:00,
2013-01-29 13:22:00,80.3,64.0,30.13,SE,146,2.0,8.0,57,0.00,,,0.01,450,weatherlink.com 1.10,2013-01-29 18:22:00,
2013-01-29 13:37:00,81.3,64.0,30.12,SSE,148,3.0,9.0,56,0.00,,,0.01,570,weatherlink.com 1.10,2013-01-29 18:37:00,
2013-01-29 13:53:00,80.4,64.0,30.12,South,190,3.0,10.0,57,0.00,,,0.01,132,weatherlink.com 1.10,2013-01-29 18:53:00,
2013-01-29 14:08:00,80.9,63.0,30.11,SSE,150,1.0,7.0,55,0.00,,,0.01,710,weatherlink.com 1.10,2013-01-29 19:08:00,
2013-01-29 14:23:00,82.3,63.0,30.11,South,176,4.0,8.0,52,0.00,,,0.01,635,weatherlink.com 1.10,2013-01-29 19:23:00,
2013-01-29 14:38:00,82.7,62.0,30.10,SE,138,3.0,9.0,50,0.00,,,0.01,621,weatherlink.com 1.10,2013-01-29 19:38:00,
2013-01-29 14:53:00,82.3,62.0,30.09,East,79,2.0,9.0,51,0.00,,,0.01,501,weatherlink.com 1.10,2013-01-29 19:53:00,
2013-01-29 15:08:00,81.8,63.0,30.09,SE,146,1.0,8.0,53,0.00,,,0.01,137,weatherlink.com 1.10,2013-01-29 20:08:00,
2013-01-29 15:23:00,81.4,64.0,30.09,ESE,117,1.0,4.0,56,0.00,,,0.01,146,weatherlink.com 1.10,2013-01-29 20:23:00,
2013-01-29 15:38:00,80.5,65.0,30.09,East,90,3.0,7.0,60,0.00,,,0.01,86,weatherlink.com 1.10,2013-01-29 20:38:00,
2013-01-29 15:53:00,80.3,66.0,30.09,SSE,160,2.0,6.0,61,0.00,,,0.01,148,weatherlink.com 1.10,2013-01-29 20:53:00,
2013-01-29 16:08:00,80.2,66.0,30.09,ESE,109,0.0,11.0,63,0.00,,,0.01,341,weatherlink.com 1.10,2013-01-29 21:08:00,
2013-01-29 16:23:00,79.0,67.0,30.09,ENE,72,1.0,5.0,66,0.00,,,0.01,42,weatherlink.com 1.10,2013-01-29 21:23:00,
2013-01-29 16:38:00,78.3,66.0,30.10,ESE,105,2.0,5.0,67,0.00,,,0.01,26,weatherlink.com 1.10,2013-01-29 21:38:00,
2013-01-29 16:53:00,78.0,67.0,30.10,SSE,161,6.0,8.0,68,0.00,,,0.01,100,weatherlink.com 1.10,2013-01-29 21:53:00,
2013-01-29 17:08:00,77.9,67.0,30.09,SE,134,1.0,11.0,68,0.00,,,0.01,42,weatherlink.com 1.10,2013-01-29 22:08:00,
2013-01-29 17:23:00,77.3,66.0,30.10,South,175,7.0,8.0,69,0.00,,,0.01,19,weatherlink.com 1.10,2013-01-29 22:23:00,
2013-01-29 17:38:00,76.8,67.0,30.10,SE,135,0.0,8.0,71,0.00,,,0.01,9,weatherlink.com 1.10,2013-01-29 22:38:00,
2013-01-29 17:53:00,76.4,66.0,30.10,SSE,148,4.0,11.0,71,0.00,,,0.01,5,weatherlink.com 1.10,2013-01-29 22:53:00,
2013-01-29 18:08:00,75.9,66.0,30.10,SSE,156,1.0,8.0,72,0.00,,,0.01,0,weatherlink.com 1.10,2013-01-29 23:08:00,
2013-01-29 18:23:00,75.2,66.0,30.10,SE,134,4.0,6.0,73,0.00,,,0.01,0,weatherlink.com 1.10,2013-01-29 23:23:00,
2013-01-29 18:38:00,74.6,66.0,30.11,SE,141,1.0,7.0,74,0.00,,,0.01,0,weatherlink.com 1.10,2013-01-29 23:38:00,
2013-01-29 18:53:00,74.2,66.0,30.10,SE,136,3.0,10.0,75,0.00,,,0.01,0,weatherlink.com 1.10,2013-01-29 23:53:00,
2013-01-29 19:08:00,73.8,66.0,30.11,SE,141,0.0,6.0,76,0.00,,,0.01,0,weatherlink.com 1.10,2013-01-30 00:08:00,
2013-01-29 19:23:00,73.3,66.0,30.11,SE,143,0.0,7.0,78,0.00,,,0.01,0,weatherlink.com 1.10,2013-01-30 00:23:00,
2013-01-29 19:38:00,72.9,66.0,30.12,ESE,121,4.0,9.0,79,0.00,,,0.01,0,weatherlink.com 1.10,2013-01-30 00:38:00,
2013-01-29 19:53:00,72.6,66.0,30.12,SE,141,2.0,10.0,79,0.00,,,0.01,0,weatherlink.com 1.10,2013-01-30 00:53:00,
2013-01-29 20:08:00,72.3,66.0,30.12,East,83,0.0,13.0,80,0.00,,,0.01,0,weatherlink.com 1.10,2013-01-30 01:08:00,
2013-01-29 20:23:00,72.1,66.0,30.11,SSE,163,5.0,11.0,80,0.00,,,0.01,0,weatherlink.com 1.10,2013-01-30 01:23:00,
2013-01-29 20:38:00,71.8,65.0,30.11,SSE,150,6.0,12.0,80,0.00,,,0.01,0,weatherlink.com 1.10,2013-01-30 01:38:00,
2013-01-29 20:53:00,71.5,65.0,30.11,SSE,162,5.0,8.0,81,0.00,,,0.01,0,weatherlink.com 1.10,2013-01-30 01:53:00,
2013-01-29 21:08:00,71.2,66.0,30.10,SE,127,6.0,8.0,82,0.00,,,0.01,0,weatherlink.com 1.10,2013-01-30 02:08:00,
2013-01-29 21:23:00,71.1,65.0,30.10,SSE,155,2.0,9.0,82,0.00,,,0.01,0,weatherlink.com 1.10,2013-01-30 02:23:00,
2013-01-29 21:38:00,71.0,66.0,30.10,SE,140,3.0,10.0,83,0.00,,,0.01,0,weatherlink.com 1.10,2013-01-30 02:38:00,
2013-01-29 21:53:00,70.9,66.0,30.09,SE,144,6.0,7.0,83,0.00,,,0.01,0,weatherlink.com 1.10,2013-01-30 02:53:00,
2013-01-29 22:08:00,70.8,65.0,30.10,SSE,150,0.0,7.0,83,0.00,,,0.01,0,weatherlink.com 1.10,2013-01-30 03:08:00,
2013-01-29 22:23:00,70.6,65.0,30.09,SE,134,3.0,6.0,83,0.00,,,0.01,0,weatherlink.com 1.10,2013-01-30 03:23:00,
2013-01-29 22:38:00,70.3,65.0,30.09,ESE,111,2.0,7.0,84,0.00,,,0.01,0,weatherlink.com 1.10,2013-01-30 03:38:00,
2013-01-29 22:53:00,70.2,66.0,30.09,SSE,157,3.0,7.0,85,0.00,,,0.01,0,weatherlink.com 1.10,2013-01-30 03:53:00,
2013-01-29 23:09:00,70.2,66.0,30.10,SSE,161,2.0,8.0,86,0.00,,,0.01,0,weatherlink.com 1.10,2013-01-30 04:09:00,
2013-01-29 23:23:00,70.1,66.0,30.10,SSE,157,3.0,7.0,86,0.00,,,0.01,0,weatherlink.com 1.10,2013-01-30 04:23:00,
2013-01-29 23:38:00,70.0,66.0,30.10,South,178,2.0,8.0,86,0.00,,,0.01,0,weatherlink.com 1.10,2013-01-30 04:38:00,
2013-01-29 23:53:00,70.1,66.0,30.10,SSE,159,2.0,6.0,86,0.00,,,0.01,0,weatherlink.com 1.10,2013-01-30 04:53:00,